Wetterstation Vordersexau
Wetterdaten: Woche 30.07.18 - 05.08.18 (KW31)
Datum Zeit Temp. A. Feuchte A. Luftdruck Regen Wind Richtung Taupunkt Windchill Windben
30.07.2018 00:00 20,6 C 62 % 1012,2 hPa 0,0 l/m 0,0 km/h O 13,1 C 20,6 C 0,0 km/h
30.07.2018 01:00 20,2 C 64 % 1012,4 hPa 0,0 l/m 0,0 km/h O-SO 13,2 C 20,2 C 0,0 km/h
30.07.2018 02:00 19,5 C 66 % 1012,7 hPa 0,0 l/m 0,0 km/h O-NO 13,0 C 19,5 C 0,0 km/h
30.07.2018 03:00 19,0 C 67 % 1012,8 hPa 0,0 l/m 0,0 km/h O-NO 12,7 C 19,0 C 0,0 km/h
30.07.2018 04:00 18,4 C 70 % 1012,9 hPa 0,0 l/m 0,0 km/h O-NO 12,8 C 18,4 C 0,0 km/h
30.07.2018 05:00 17,9 C 71 % 1013,0 hPa 0,0 l/m 0,0 km/h O-NO 12,6 C 17,9 C 0,0 km/h
30.07.2018 06:00 18,2 C 73 % 1013,2 hPa 0,0 l/m 0,0 km/h O 13,3 C 18,2 C 0,0 km/h
30.07.2018 07:00 19,6 C 72 % 1013,4 hPa 0,0 l/m 0,0 km/h O-SO 14,4 C 19,6 C 0,0 km/h
30.07.2018 08:00 23,1 C 64 % 1013,6 hPa 0,0 l/m 0,0 km/h NW 15,9 C 23,1 C 0,0 km/h
30.07.2018 09:00 25,2 C 58 % 1013,7 hPa 0,0 l/m 0,0 km/h N-NW 16,3 C 25,2 C 0,0 km/h
30.07.2018 10:00 27,8 C 50 % 1013,9 hPa 0,0 l/m 0,0 km/h N-NW 16,4 C 27,8 C 0,0 km/h
30.07.2018 11:00 29,9 C 45 % 1013,3 hPa 0,0 l/m 0,0 km/h W-SW 16,7 C 29,9 C 0,0 km/h
30.07.2018 12:00 31,8 C 36 % 1013,2 hPa 0,0 l/m 21,4 km/h W 14,9 C 31,4 C 11,9 km/h
30.07.2018 13:00 32,9 C 32 % 1012,5 hPa 0,0 l/m 0,0 km/h N-NW 14,0 C 32,9 C 0,0 km/h
30.07.2018 14:00 33,5 C 31 % 1012,4 hPa 0,0 l/m 13,6 km/h NW 14,0 C 33,5 C 7,6 km/h
30.07.2018 15:00 34,4 C 27 % 1012,0 hPa 0,0 l/m 0,0 km/h W 12,7 C 34,4 C 0,0 km/h
30.07.2018 16:00 35,2 C 21 % 1011,6 hPa 0,0 l/m 0,0 km/h W-SW 9,5 C 35,2 C 0,0 km/h
30.07.2018 17:00 34,5 C 27 % 1011,7 hPa 0,0 l/m 0,0 km/h N-NW 12,7 C 34,5 C 0,0 km/h
30.07.2018 18:00 34,6 C 28 % 1011,6 hPa 0,0 l/m 4,5 km/h N 13,4 C 34,6 C 2,5 km/h
30.07.2018 19:00 32,7 C 33 % 1011,9 hPa 0,0 l/m 5,8 km/h NO 14,3 C 32,7 C 3,2 km/h
30.07.2018 20:00 29,9 C 42 % 1012,2 hPa 0,0 l/m 0,0 km/h NO 15,6 C 29,9 C 0,0 km/h
30.07.2018 21:00 26,2 C 48 % 1012,9 hPa 0,0 l/m 0,0 km/h O-SO 14,3 C 26,2 C 0,0 km/h
30.07.2018 22:00 24,5 C 53 % 1013,1 hPa 0,0 l/m 0,0 km/h O-SO 14,3 C 24,5 C 0,0 km/h
30.07.2018 23:00 23,3 C 56 % 1013,1 hPa 0,0 l/m 0,0 km/h SO 14,0 C 23,3 C 0,0 km/h
31.07.2018 00:00 22,5 C 57 % 1013,0 hPa 0,0 l/m 0,0 km/h O-NO 13,5 C 22,5 C 0,0 km/h
31.07.2018 01:00 22,0 C 58 % 1012,6 hPa 0,0 l/m 0,0 km/h O 13,3 C 22,0 C 0,0 km/h
31.07.2018 02:00 20,9 C 61 % 1012,7 hPa 0,0 l/m 0,0 km/h O-NO 13,1 C 20,9 C 0,0 km/h
31.07.2018 03:00 19,6 C 65 % 1012,8 hPa 0,0 l/m 0,0 km/h SO 12,8 C 19,6 C 0,0 km/h
31.07.2018 04:00 19,1 C 67 % 1012,7 hPa 0,0 l/m 0,0 km/h O 12,8 C 19,1 C 0,0 km/h
31.07.2018 05:00 18,4 C 70 % 1012,7 hPa 0,0 l/m 0,0 km/h O-SO 12,8 C 18,4 C 0,0 km/h
31.07.2018 06:00 18,4 C 70 % 1013,0 hPa 0,0 l/m 0,0 km/h O-SO 12,8 C 18,4 C 0,0 km/h
31.07.2018 07:00 20,1 C 69 % 1013,2 hPa 0,0 l/m 0,0 km/h O-SO 14,2 C 20,1 C 0,0 km/h
31.07.2018 08:00 23,9 C 60 % 1013,4 hPa 0,0 l/m 0,0 km/h N-NW 15,7 C 23,9 C 0,0 km/h
31.07.2018 09:00 26,1 C 53 % 1013,7 hPa 0,0 l/m 0,0 km/h S-SW 15,8 C 26,1 C 0,0 km/h
31.07.2018 10:00 28,5 C 48 % 1014,0 hPa 0,0 l/m 3,9 km/h SW 16,4 C 28,5 C 2,2 km/h
31.07.2018 11:00 31,3 C 42 % 1014,0 hPa 0,0 l/m 2,6 km/h W 16,8 C 31,3 C 1,4 km/h
31.07.2018 12:00 32,9 C 36 % 1013,8 hPa 0,0 l/m 3,2 km/h N-NW 15,8 C 32,9 C 1,8 km/h
31.07.2018 13:00 33,8 C 33 % 1013,6 hPa 0,0 l/m 0,0 km/h NW 15,2 C 33,8 C 0,0 km/h
31.07.2018 14:00 34,4 C 32 % 1013,5 hPa 0,0 l/m 8,4 km/h N 15,3 C 34,4 C 4,7 km/h
31.07.2018 15:00 34,8 C 33 % 1013,3 hPa 0,0 l/m 0,0 km/h N 16,1 C 34,8 C 0,0 km/h
31.07.2018 16:00 35,1 C 33 % 1013,3 hPa 0,0 l/m 20,1 km/h N 16,4 C 35,1 C 11,2 km/h
31.07.2018 17:00 34,0 C 35 % 1013,5 hPa 0,0 l/m 0,0 km/h N-NO 16,3 C 34,0 C 0,0 km/h
31.07.2018 18:00 33,7 C 36 % 1013,4 hPa 0,0 l/m 11,0 km/h N 16,5 C 33,7 C 6,1 km/h
31.07.2018 19:00 32,6 C 38 % 1013,6 hPa 0,0 l/m 0,0 km/h NW 16,4 C 32,6 C 0,0 km/h
31.07.2018 20:00 30,3 C 45 % 1013,8 hPa 0,0 l/m 0,0 km/h NW 17,0 C 30,3 C 0,0 km/h
31.07.2018 21:00 27,5 C 51 % 1014,4 hPa 0,0 l/m 0,0 km/h O 16,4 C 27,5 C 0,0 km/h
31.07.2018 22:00 25,3 C 58 % 1014,6 hPa 0,0 l/m 0,0 km/h O 16,4 C 25,3 C 0,0 km/h
31.07.2018 23:00 24,2 C 61 % 1014,7 hPa 0,0 l/m 0,0 km/h O 16,2 C 24,2 C 0,0 km/h
01.08.2018 00:00 23,6 C 64 % 1015,0 hPa 0,0 l/m 0,0 km/h O 16,4 C 23,6 C 0,0 km/h
01.08.2018 01:00 22,8 C 67 % 1015,2 hPa 0,0 l/m 0,0 km/h O 16,3 C 22,8 C 0,0 km/h
01.08.2018 02:00 22,2 C 69 % 1015,0 hPa 0,0 l/m 0,0 km/h O-NO 16,2 C 22,2 C 0,0 km/h
01.08.2018 03:00 21,1 C 72 % 1015,4 hPa 0,0 l/m 0,0 km/h O-NO 15,8 C 21,1 C 0,0 km/h
01.08.2018 04:00 20,9 C 74 % 1014,9 hPa 0,0 l/m 0,0 km/h N-NW 16,1 C 20,9 C 0,0 km/h
01.08.2018 05:00 21,3 C 72 % 1014,9 hPa 0,0 l/m 0,0 km/h O-NO 16,0 C 21,3 C 0,0 km/h
01.08.2018 06:00 20,9 C 74 % 1015,1 hPa 0,0 l/m 0,0 km/h O-NO 16,1 C 20,9 C 0,0 km/h
01.08.2018 07:00 22,6 C 72 % 1015,0 hPa 0,0 l/m 0,0 km/h W 17,3 C 22,6 C 0,0 km/h
01.08.2018 08:00 24,6 C 65 % 1015,3 hPa 0,0 l/m 0,0 km/h N-NW 17,6 C 24,6 C 0,0 km/h
01.08.2018 09:00 25,8 C 63 % 1015,4 hPa 0,0 l/m 1,9 km/h NW 18,2 C 25,8 C 1,1 km/h
01.08.2018 10:00 27,3 C 59 % 1015,5 hPa 0,0 l/m 0,0 km/h N-NW 18,6 C 27,3 C 0,0 km/h
01.08.2018 11:00 29,4 C 53 % 1015,6 hPa 0,0 l/m 22,7 km/h N-NO 18,8 C 28,2 C 12,6 km/h
01.08.2018 12:00 29,2 C 50 % 1015,8 hPa 0,0 l/m 3,9 km/h W-NW 17,7 C 29,2 C 2,2 km/h
01.08.2018 13:00 29,5 C 51 % 1016,1 hPa 0,0 l/m 7,1 km/h N 18,3 C 29,4 C 4,0 km/h
01.08.2018 14:00 29,7 C 49 % 1016,1 hPa 0,0 l/m 20,7 km/h N 17,8 C 28,7 C 11,5 km/h
01.08.2018 15:00 29,5 C 48 % 1016,2 hPa 0,0 l/m 3,9 km/h N-NO 17,3 C 29,5 C 2,2 km/h
01.08.2018 16:00 29,4 C 45 % 1016,3 hPa 0,0 l/m 0,6 km/h N-NO 16,2 C 29,4 C 0,4 km/h
01.08.2018 17:00 27,9 C 46 % 1016,6 hPa 0,0 l/m 0,0 km/h NO 15,2 C 27,9 C 0,0 km/h
01.08.2018 18:00 28,5 C 44 % 1016,0 hPa 0,0 l/m 7,8 km/h NO 15,0 C 28,3 C 4,3 km/h
01.08.2018 19:00 27,9 C 45 % 1016,5 hPa 0,0 l/m 0,0 km/h N-NO 14,8 C 27,9 C 0,0 km/h
01.08.2018 20:00 26,5 C 49 % 1017,0 hPa 0,0 l/m 0,0 km/h N-NO 14,9 C 26,5 C 0,0 km/h
01.08.2018 21:00 25,5 C 52 % 1017,4 hPa 0,0 l/m 0,0 km/h O-NO 14,9 C 25,5 C 0,0 km/h
01.08.2018 22:00 23,1 C 64 % 1018,6 hPa 0,0 l/m 0,0 km/h O-NO 15,9 C 23,1 C 0,0 km/h
01.08.2018 23:00 19,3 C 80 % 1018,7 hPa 3,6 l/m 0,0 km/h N-NO 15,8 C 19,3 C 0,0 km/h
02.08.2018 00:00 19,9 C 80 % 1018,4 hPa 0,0 l/m 0,0 km/h N-NO 16,3 C 19,9 C 0,0 km/h
02.08.2018 01:00 19,9 C 81 % 1018,7 hPa 0,0 l/m 0,0 km/h O-SO 16,5 C 19,9 C 0,0 km/h
02.08.2018 02:00 19,6 C 82 % 1018,4 hPa 0,0 l/m 0,0 km/h O-SO 16,4 C 19,6 C 0,0 km/h
02.08.2018 03:00 19,2 C 82 % 1018,0 hPa 0,0 l/m 0,0 km/h O-NO 16,0 C 19,2 C 0,0 km/h
02.08.2018 04:00 19,1 C 82 % 1017,7 hPa 0,0 l/m 0,0 km/h N 16,0 C 19,1 C 0,0 km/h
02.08.2018 05:00 18,4 C 82 % 1018,1 hPa 0,0 l/m 0,0 km/h O-SO 15,3 C 18,4 C 0,0 km/h
02.08.2018 06:00 18,2 C 82 % 1018,5 hPa 0,0 l/m 0,0 km/h O-SO 15,1 C 18,2 C 0,0 km/h
02.08.2018 07:00 18,9 C 82 % 1018,7 hPa 0,5 l/m 0,0 km/h S-SO 15,8 C 18,9 C 0,0 km/h
02.08.2018 08:00 21,2 C 82 % 1019,2 hPa 0,0 l/m 0,0 km/h S-SW 18,0 C 21,2 C 0,0 km/h
02.08.2018 09:00 22,4 C 79 % 1019,1 hPa 0,0 l/m 0,0 km/h S 18,6 C 22,4 C 0,0 km/h
02.08.2018 10:00 24,3 C 76 % 1019,1 hPa 0,0 l/m 0,0 km/h S-SO 19,8 C 24,3 C 0,0 km/h
02.08.2018 11:00 25,6 C 70 % 1019,2 hPa 0,0 l/m 0,0 km/h N 19,7 C 25,6 C 0,0 km/h
02.08.2018 12:00 28,3 C 58 % 1018,6 hPa 0,0 l/m 0,0 km/h N 19,2 C 28,3 C 0,0 km/h
02.08.2018 13:00 30,3 C 44 % 1017,8 hPa 0,0 l/m 1,9 km/h N-NW 16,7 C 30,3 C 1,1 km/h
02.08.2018 14:00 31,3 C 48 % 1017,3 hPa 0,0 l/m 22,7 km/h N-NW 18,9 C 30,7 C 12,6 km/h
02.08.2018 15:00 32,2 C 46 % 1017,1 hPa 0,0 l/m 22,0 km/h NO 19,1 C 31,9 C 12,2 km/h
02.08.2018 16:00 31,9 C 44 % 1016,8 hPa 0,0 l/m 3,9 km/h N-NO 18,1 C 31,9 C 2,2 km/h
02.08.2018 17:00 31,8 C 46 % 1016,6 hPa 0,0 l/m 5,2 km/h N-NW 18,7 C 31,8 C 2,9 km/h
02.08.2018 18:00 31,3 C 46 % 1016,6 hPa 0,0 l/m 12,3 km/h N-NO 18,3 C 31,0 C 6,8 km/h
02.08.2018 19:00 30,5 C 47 % 1016,7 hPa 0,0 l/m 0,0 km/h N 17,9 C 30,5 C 0,0 km/h
02.08.2018 20:00 29,1 C 49 % 1017,2 hPa 0,0 l/m 0,0 km/h O-NO 17,3 C 29,1 C 0,0 km/h
02.08.2018 21:00 25,6 C 61 % 1017,2 hPa 0,0 l/m 0,0 km/h O-NO 17,5 C 25,6 C 0,0 km/h
02.08.2018 22:00 23,8 C 67 % 1017,8 hPa 0,0 l/m 0,0 km/h O-NO 17,3 C 23,8 C 0,0 km/h
02.08.2018 23:00 22,6 C 72 % 1017,7 hPa 0,0 l/m 0,0 km/h O-NO 17,3 C 22,6 C 0,0 km/h
03.08.2018 00:00 21,8 C 74 % 1017,7 hPa 0,0 l/m 0,0 km/h O-NO 17,0 C 21,8 C 0,0 km/h
03.08.2018 01:00 21,0 C 77 % 1017,4 hPa 0,0 l/m 0,0 km/h O-NO 16,8 C 21,0 C 0,0 km/h
03.08.2018 02:00 20,8 C 77 % 1016,8 hPa 0,0 l/m 0,0 km/h O-NO 16,6 C 20,8 C 0,0 km/h
03.08.2018 03:00 20,1 C 79 % 1016,9 hPa 0,0 l/m 0,0 km/h O-NO 16,3 C 20,1 C 0,0 km/h
03.08.2018 04:00 19,6 C 80 % 1016,6 hPa 0,0 l/m 0,0 km/h NO 16,1 C 19,6 C 0,0 km/h
03.08.2018 05:00 19,9 C 80 % 1016,7 hPa 0,0 l/m 0,0 km/h O 16,3 C 19,9 C 0,0 km/h
03.08.2018 06:00 19,6 C 81 % 1016,8 hPa 0,0 l/m 0,0 km/h SO 16,2 C 19,6 C 0,0 km/h
03.08.2018 07:00 21,5 C 79 % 1017,0 hPa 0,0 l/m 0,0 km/h N-NW 17,7 C 21,5 C 0,0 km/h
03.08.2018 08:00 24,1 C 72 % 1017,3 hPa 0,0 l/m 0,0 km/h W-SW 18,7 C 24,1 C 0,0 km/h
03.08.2018 09:00 26,6 C 65 % 1017,0 hPa 0,0 l/m 0,0 km/h N-NW 19,5 C 26,6 C 0,0 km/h
03.08.2018 10:00 29,4 C 59 % 1016,7 hPa 0,0 l/m 15,6 km/h W 20,5 C 28,6 C 8,6 km/h
03.08.2018 11:00 31,9 C 50 % 1016,0 hPa 0,0 l/m 0,0 km/h N-NO 20,2 C 31,9 C 0,0 km/h
03.08.2018 12:00 33,9 C 42 % 1015,5 hPa 0,0 l/m 0,0 km/h N-NO 19,1 C 33,9 C 0,0 km/h
03.08.2018 13:00 34,2 C 39 % 1014,9 hPa 0,0 l/m 0,0 km/h N-NO 18,2 C 34,2 C 0,0 km/h
03.08.2018 14:00 35,2 C 37 % 1014,7 hPa 0,0 l/m 0,0 km/h NO 18,3 C 35,2 C 0,0 km/h
03.08.2018 15:00 35,8 C 37 % 1013,9 hPa 0,0 l/m 0,0 km/h N-NO 18,8 C 35,8 C 0,0 km/h
03.08.2018 16:00 34,9 C 37 % 1013,9 hPa 0,0 l/m 0,0 km/h O-NO 18,0 C 34,9 C 0,0 km/h
03.08.2018 17:00 34,9 C 37 % 1013,5 hPa 0,0 l/m 0,0 km/h N-NO 18,0 C 34,9 C 0,0 km/h
03.08.2018 18:00 35,6 C 35 % 1013,1 hPa 0,0 l/m 0,0 km/h N 17,7 C 35,6 C 0,0 km/h
03.08.2018 19:00 34,3 C 39 % 1013,3 hPa 0,0 l/m 0,0 km/h N-NO 18,3 C 34,3 C 0,0 km/h
03.08.2018 20:00 31,8 C 45 % 1013,7 hPa 0,0 l/m 0,0 km/h NO 18,4 C 31,8 C 0,0 km/h
03.08.2018 21:00 27,8 C 54 % 1014,4 hPa 0,0 l/m 0,0 km/h SO 17,6 C 27,8 C 0,0 km/h
03.08.2018 22:00 26,6 C 59 % 1014,5 hPa 0,0 l/m 0,0 km/h O-SO 17,9 C 26,6 C 0,0 km/h
03.08.2018 23:00 25,7 C 60 % 1014,6 hPa 0,0 l/m 0,0 km/h O-NO 17,3 C 25,7 C 0,0 km/h
04.08.2018 00:00 23,8 C 67 % 1014,7 hPa 0,0 l/m 0,0 km/h O-NO 17,3 C 23,8 C 0,0 km/h
04.08.2018 01:00 23,1 C 69 % 1014,5 hPa 0,0 l/m 0,0 km/h O-NO 17,1 C 23,1 C 0,0 km/h
04.08.2018 02:00 22,8 C 70 % 1014,3 hPa 0,0 l/m 0,0 km/h O-NO 17,0 C 22,8 C 0,0 km/h
04.08.2018 03:00 21,7 C 73 % 1014,2 hPa 0,0 l/m 0,0 km/h O-NO 16,6 C 21,7 C 0,0 km/h
04.08.2018 04:00 20,9 C 75 % 1013,9 hPa 0,0 l/m 0,0 km/h O-NO 16,3 C 20,9 C 0,0 km/h
04.08.2018 05:00 20,6 C 76 % 1014,2 hPa 0,0 l/m 0,0 km/h O-NO 16,2 C 20,6 C 0,0 km/h
04.08.2018 06:00 20,8 C 77 % 1014,5 hPa 0,0 l/m 0,0 km/h S-SO 16,6 C 20,8 C 0,0 km/h
04.08.2018 07:00 22,2 C 75 % 1014,8 hPa 0,0 l/m 4,5 km/h SO 17,5 C 22,2 C 2,5 km/h
04.08.2018 08:00 25,6 C 68 % 1015,0 hPa 0,0 l/m 0,0 km/h W-SW 19,2 C 25,6 C 0,0 km/h
04.08.2018 09:00 27,4 C 59 % 1014,9 hPa 0,0 l/m 0,0 km/h SO 18,7 C 27,4 C 0,0 km/h
04.08.2018 10:00 29,6 C 55 % 1014,9 hPa 0,0 l/m 0,0 km/h W-SW 19,6 C 29,6 C 0,0 km/h
04.08.2018 11:00 32,1 C 48 % 1014,7 hPa 0,0 l/m 0,0 km/h W-SW 19,7 C 32,1 C 0,0 km/h
04.08.2018 12:00 33,3 C 43 % 1014,2 hPa 0,0 l/m 0,0 km/h W-NW 19,0 C 33,3 C 0,0 km/h
04.08.2018 13:00 35,0 C 35 % 1014,1 hPa 0,0 l/m 3,9 km/h NW 17,2 C 35,0 C 2,2 km/h
04.08.2018 14:00 35,5 C 34 % 1013,6 hPa 0,0 l/m 0,0 km/h N-NW 17,2 C 35,5 C 0,0 km/h
04.08.2018 15:00 35,7 C 33 % 1013,4 hPa 0,0 l/m 0,0 km/h N-NW 16,9 C 35,7 C 0,0 km/h
04.08.2018 16:00 36,1 C 30 % 1013,1 hPa 0,0 l/m 3,9 km/h W 15,7 C 36,1 C 2,2 km/h
04.08.2018 17:00 35,8 C 30 % 1013,3 hPa 0,0 l/m 4,5 km/h N 15,5 C 35,8 C 2,5 km/h
04.08.2018 18:00 34,3 C 31 % 1013,5 hPa 0,0 l/m 0,0 km/h NO 14,7 C 34,3 C 0,0 km/h
04.08.2018 19:00 33,5 C 35 % 1013,4 hPa 0,0 l/m 0,0 km/h O-NO 15,9 C 33,5 C 0,0 km/h
04.08.2018 20:00 30,9 C 43 % 1014,0 hPa 0,0 l/m 0,0 km/h O-NO 16,8 C 30,9 C 0,0 km/h
04.08.2018 21:00 27,7 C 50 % 1014,3 hPa 0,0 l/m 0,0 km/h O-SO 16,3 C 27,7 C 0,0 km/h
04.08.2018 22:00 26,0 C 56 % 1014,4 hPa 0,0 l/m 0,0 km/h O-SO 16,5 C 26,0 C 0,0 km/h
04.08.2018 23:00 24,4 C 61 % 1014,8 hPa 0,0 l/m 0,0 km/h O 16,4 C 24,4 C 0,0 km/h
05.08.2018 00:00 23,7 C 64 % 1014,4 hPa 0,0 l/m 0,0 km/h O 16,5 C 23,7 C 0,0 km/h
05.08.2018 01:00 22,6 C 66 % 1014,6 hPa 0,0 l/m 0,0 km/h O-SO 15,9 C 22,6 C 0,0 km/h
05.08.2018 02:00 21,9 C 68 % 1014,6 hPa 0,0 l/m 0,0 km/h O-SO 15,7 C 21,9 C 0,0 km/h
05.08.2018 03:00 20,8 C 70 % 1014,7 hPa 0,0 l/m 0,0 km/h O-SO 15,1 C 20,8 C 0,0 km/h
05.08.2018 04:00 20,3 C 72 % 1014,8 hPa 0,0 l/m 0,0 km/h O-SO 15,1 C 20,3 C 0,0 km/h
05.08.2018 05:00 19,4 C 76 % 1015,2 hPa 0,0 l/m 0,0 km/h O-SO 15,1 C 19,4 C 0,0 km/h
05.08.2018 06:00 19,2 C 77 % 1015,5 hPa 0,0 l/m 0,0 km/h O-SO 15,1 C 19,2 C 0,0 km/h
05.08.2018 07:00 20,4 C 77 % 1015,8 hPa 0,0 l/m 0,0 km/h S-SW 16,2 C 20,4 C 0,0 km/h
05.08.2018 08:00 23,2 C 69 % 1015,9 hPa 0,0 l/m 0,0 km/h W 17,2 C 23,2 C 0,0 km/h
05.08.2018 09:00 25,0 C 62 % 1016,2 hPa 0,0 l/m 0,0 km/h S 17,2 C 25,0 C 0,0 km/h
05.08.2018 10:00 27,8 C 57 % 1016,1 hPa 0,0 l/m 0,0 km/h W-SW 18,5 C 27,8 C 0,0 km/h
05.08.2018 11:00 29,7 C 50 % 1015,8 hPa 0,0 l/m 0,0 km/h W-NW 18,1 C 29,7 C 0,0 km/h
05.08.2018 12:00 30,9 C 48 % 1015,5 hPa 0,0 l/m 0,0 km/h W-NW 18,6 C 30,9 C 0,0 km/h
05.08.2018 13:00 32,1 C 46 % 1015,0 hPa 0,0 l/m 1,9 km/h N-NW 19,0 C 32,1 C 1,1 km/h
05.08.2018 14:00 33,1 C 43 % 1014,8 hPa 0,0 l/m 9,1 km/h N 18,8 C 33,1 C 5,0 km/h
05.08.2018 15:00 33,6 C 41 % 1014,3 hPa 0,0 l/m 17,5 km/h N-NW 18,5 C 33,6 C 9,7 km/h
05.08.2018 16:00 33,3 C 40 % 1013,9 hPa 0,0 l/m 20,7 km/h N 17,8 C 33,3 C 11,5 km/h
05.08.2018 17:00 33,3 C 38 % 1013,5 hPa 0,0 l/m 0,0 km/h N 17,0 C 33,3 C 0,0 km/h
05.08.2018 18:00 32,7 C 37 % 1013,4 hPa 0,0 l/m 10,4 km/h NO 16,1 C 32,7 C 5,8 km/h
05.08.2018 19:00 31,4 C 40 % 1013,8 hPa 0,0 l/m 0,0 km/h N 16,1 C 31,4 C 0,0 km/h
05.08.2018 20:00 29,6 C 42 % 1014,2 hPa 0,0 l/m 0,0 km/h N 15,3 C 29,6 C 0,0 km/h
05.08.2018 21:00 27,2 C 49 % 1014,6 hPa 0,0 l/m 0,0 km/h N-NO 15,5 C 27,2 C 0,0 km/h
05.08.2018 22:00 24,8 C 56 % 1014,9 hPa 0,0 l/m 0,0 km/h N-NO 15,4 C 24,8 C 0,0 km/h
05.08.2018 23:00 23,4 C 60 % 1014,9 hPa 0,0 l/m 0,0 km/h N-NO 15,2 C 23,4 C 0,0 km/h
Min-Datum _ 30.07.18 30.07.18 30.07.18 - 30.07.18 - 30.07.18 30.07.18 30.07.18
_ Min-Zeit 05:53 16:53 16:53 - 00:53 - 16:53 05:53 00:53
Minimum _ 17,9 C 21 % 1011,6 hPa - 0,0 km/h - 9,5 C 17,9 C 0,0 km/h
Max-Datum _ 04.08.18 02.08.18 02.08.18 01.08.18 01.08.18 - 03.08.18 04.08.18 01.08.18
_ Max-Zeit 16:53 02:53 08:53 23:53 11:53 - 10:53 16:53 11:53
Maximum _ 36,1 C 82 % 1019,2 hPa 3,6 l/m 22,7 km/h
N-NO
- 20,5 C 36,1 C 12,6 km/h
N-NO
Durchschnitt _ 26,6 C 56 % 1015,0 hPa #4,1 l/m 1,9 km/h O-NO 16,4 C 26,6 C 1,1 km/h
www.sexauwetter.de